sensor_id;sensor_type;location;lat;lon;timestamp;temperature;humidity
20732;DHT22;10527;52.124;5.196;2023-07-31T00:00:15;17.00;99.90
20732;DHT22;10527;52.124;5.196;2023-07-31T00:02:42;16.90;99.90
20732;DHT22;10527;52.124;5.196;2023-07-31T00:05:09;17.10;99.90
20732;DHT22;10527;52.124;5.196;2023-07-31T00:07:36;17.00;99.90
20732;DHT22;10527;52.124;5.196;2023-07-31T00:10:03;17.10;99.90
20732;DHT22;10527;52.124;5.196;2023-07-31T00:12:30;17.10;99.90
20732;DHT22;10527;52.124;5.196;2023-07-31T00:14:57;17.10;99.90
20732;DHT22;10527;52.124;5.196;2023-07-31T00:17:24;17.00;99.90
20732;DHT22;10527;52.124;5.196;2023-07-31T00:19:51;17.00;99.90
20732;DHT22;10527;52.124;5.196;2023-07-31T00:22:18;17.00;99.90
20732;DHT22;10527;52.124;5.196;2023-07-31T00:24:45;17.10;99.90
20732;DHT22;10527;52.124;5.196;2023-07-31T00:27:12;17.00;99.90
20732;DHT22;10527;52.124;5.196;2023-07-31T00:29:39;17.10;99.90
20732;DHT22;10527;52.124;5.196;2023-07-31T00:32:06;17.10;99.90
20732;DHT22;10527;52.124;5.196;2023-07-31T00:34:33;17.20;99.90
20732;DHT22;10527;52.124;5.196;2023-07-31T00:37:00;17.20;99.90
20732;DHT22;10527;52.124;5.196;2023-07-31T00:39:27;17.20;99.90
20732;DHT22;10527;52.124;5.196;2023-07-31T00:41:54;17.20;99.90
20732;DHT22;10527;52.124;5.196;2023-07-31T00:44:20;17.20;99.90
20732;DHT22;10527;52.124;5.196;2023-07-31T00:46:48;17.20;99.90
20732;DHT22;10527;52.124;5.196;2023-07-31T00:49:16;17.10;99.90
20732;DHT22;10527;52.124;5.196;2023-07-31T00:51:45;17.20;99.90
20732;DHT22;10527;52.124;5.196;2023-07-31T00:54:11;17.20;99.90
20732;DHT22;10527;52.124;5.196;2023-07-31T00:56:40;17.20;99.90
20732;DHT22;10527;52.124;5.196;2023-07-31T00:59:08;17.10;99.90
20732;DHT22;10527;52.124;5.196;2023-07-31T01:01:34;17.10;99.90
20732;DHT22;10527;52.124;5.196;2023-07-31T01:04:02;17.00;99.90
20732;DHT22;10527;52.124;5.196;2023-07-31T01:10:07;16.60;99.90
20732;DHT22;10527;52.124;5.196;2023-07-31T01:12:40;16.60;99.90
20732;DHT22;10527;52.124;5.196;2023-07-31T01:15:09;16.70;99.90
20732;DHT22;10527;52.124;5.196;2023-07-31T01:17:41;16.70;99.90
20732;DHT22;10527;52.124;5.196;2023-07-31T01:20:16;16.80;99.90
20732;DHT22;10527;52.124;5.196;2023-07-31T01:23:18;16.90;99.90
20732;DHT22;10527;52.124;5.196;2023-07-31T01:31:43;17.10;99.90
20732;DHT22;10527;52.124;5.196;2023-07-31T01:34:17;17.00;99.90
20732;DHT22;10527;52.124;5.196;2023-07-31T01:36:48;17.00;99.90
20732;DHT22;10527;52.124;5.196;2023-07-31T01:39:15;17.10;99.90
20732;DHT22;10527;52.124;5.196;2023-07-31T01:41:42;17.10;99.90
20732;DHT22;10527;52.124;5.196;2023-07-31T01:44:08;17.00;99.90
20732;DHT22;10527;52.124;5.196;2023-07-31T01:46:35;17.10;99.90
20732;DHT22;10527;52.124;5.196;2023-07-31T01:49:02;17.00;99.90
20732;DHT22;10527;52.124;5.196;2023-07-31T01:51:29;17.00;99.90
20732;DHT22;10527;52.124;5.196;2023-07-31T01:54:01;17.00;99.90
20732;DHT22;10527;52.124;5.196;2023-07-31T01:56:28;17.10;99.90
20732;DHT22;10527;52.124;5.196;2023-07-31T01:58:55;17.00;99.90
20732;DHT22;10527;52.124;5.196;2023-07-31T02:01:22;17.10;99.90
20732;DHT22;10527;52.124;5.196;2023-07-31T02:03:50;16.90;99.90
20732;DHT22;10527;52.124;5.196;2023-07-31T02:06:17;16.90;99.90
20732;DHT22;10527;52.124;5.196;2023-07-31T02:08:44;16.90;99.90
20732;DHT22;10527;52.124;5.196;2023-07-31T02:11:10;16.90;99.90
20732;DHT22;10527;52.124;5.196;2023-07-31T02:13:37;16.90;99.90
20732;DHT22;10527;52.124;5.196;2023-07-31T02:16:04;16.80;99.90
20732;DHT22;10527;52.124;5.196;2023-07-31T02:18:31;16.80;99.90
20732;DHT22;10527;52.124;5.196;2023-07-31T02:20:58;16.80;99.90
20732;DHT22;10527;52.124;5.196;2023-07-31T02:23:25;16.90;99.90
20732;DHT22;10527;52.124;5.196;2023-07-31T02:25:52;16.90;99.90
20732;DHT22;10527;52.124;5.196;2023-07-31T02:28:18;16.90;99.90
20732;DHT22;10527;52.124;5.196;2023-07-31T02:30:45;16.90;99.90
20732;DHT22;10527;52.124;5.196;2023-07-31T02:33:13;16.90;99.90
20732;DHT22;10527;52.124;5.196;2023-07-31T02:35:41;16.90;99.90
20732;DHT22;10527;52.124;5.196;2023-07-31T02:38:08;17.00;99.90
20732;DHT22;10527;52.124;5.196;2023-07-31T02:40:34;17.00;99.90
20732;DHT22;10527;52.124;5.196;2023-07-31T02:43:01;17.00;99.90
20732;DHT22;10527;52.124;5.196;2023-07-31T02:45:28;17.00;99.90
20732;DHT22;10527;52.124;5.196;2023-07-31T02:47:55;17.00;99.90
20732;DHT22;10527;52.124;5.196;2023-07-31T02:50:22;17.10;99.90
20732;DHT22;10527;52.124;5.196;2023-07-31T02:52:49;17.10;99.90
20732;DHT22;10527;52.124;5.196;2023-07-31T02:55:16;17.10;99.90
20732;DHT22;10527;52.124;5.196;2023-07-31T02:57:43;17.10;99.90
20732;DHT22;10527;52.124;5.196;2023-07-31T03:00:10;17.00;99.90
20732;DHT22;10527;52.124;5.196;2023-07-31T03:02:37;17.10;99.90
20732;DHT22;10527;52.124;5.196;2023-07-31T03:05:04;17.10;99.90
20732;DHT22;10527;52.124;5.196;2023-07-31T03:07:31;17.10;99.90
20732;DHT22;10527;52.124;5.196;2023-07-31T03:09:58;17.10;99.90
20732;DHT22;10527;52.124;5.196;2023-07-31T03:12:24;17.10;99.90
20732;DHT22;10527;52.124;5.196;2023-07-31T03:14:51;17.10;99.90
20732;DHT22;10527;52.124;5.196;2023-07-31T03:17:18;17.10;99.90
20732;DHT22;10527;52.124;5.196;2023-07-31T03:19:45;17.10;99.90
20732;DHT22;10527;52.124;5.196;2023-07-31T03:22:12;17.00;99.90
20732;DHT22;10527;52.124;5.196;2023-07-31T03:24:39;17.00;99.90
20732;DHT22;10527;52.124;5.196;2023-07-31T03:27:06;17.00;99.90
20732;DHT22;10527;52.124;5.196;2023-07-31T03:29:32;17.10;99.90
20732;DHT22;10527;52.124;5.196;2023-07-31T03:31:59;17.00;99.90
20732;DHT22;10527;52.124;5.196;2023-07-31T03:34:27;17.00;99.90
20732;DHT22;10527;52.124;5.196;2023-07-31T03:36:54;17.00;99.90
20732;DHT22;10527;52.124;5.196;2023-07-31T03:39:21;17.00;99.90
20732;DHT22;10527;52.124;5.196;2023-07-31T03:41:47;17.10;99.90
20732;DHT22;10527;52.124;5.196;2023-07-31T03:44:14;17.10;99.90
20732;DHT22;10527;52.124;5.196;2023-07-31T03:46:41;17.10;99.90
20732;DHT22;10527;52.124;5.196;2023-07-31T03:49:08;17.10;99.90
20732;DHT22;10527;52.124;5.196;2023-07-31T03:51:35;17.10;99.90
20732;DHT22;10527;52.124;5.196;2023-07-31T03:54:02;17.00;99.90
20732;DHT22;10527;52.124;5.196;2023-07-31T03:56:29;17.00;99.90
20732;DHT22;10527;52.124;5.196;2023-07-31T03:58:59;17.00;99.90
20732;DHT22;10527;52.124;5.196;2023-07-31T04:01:26;17.10;99.90
20732;DHT22;10527;52.124;5.196;2023-07-31T04:03:53;17.00;99.90
20732;DHT22;10527;52.124;5.196;2023-07-31T04:06:20;16.90;99.90
20732;DHT22;10527;52.124;5.196;2023-07-31T04:08:47;16.90;99.90
20732;DHT22;10527;52.124;5.196;2023-07-31T04:11:14;17.10;99.90
20732;DHT22;10527;52.124;5.196;2023-07-31T04:13:41;17.00;99.90
20732;DHT22;10527;52.124;5.196;2023-07-31T04:16:07;17.00;99.90
20732;DHT22;10527;52.124;5.196;2023-07-31T04:18:34;17.00;99.90
20732;DHT22;10527;52.124;5.196;2023-07-31T04:21:01;16.90;99.90
20732;DHT22;10527;52.124;5.196;2023-07-31T04:23:29;16.90;99.90
20732;DHT22;10527;52.124;5.196;2023-07-31T04:25:56;17.00;99.90
20732;DHT22;10527;52.124;5.196;2023-07-31T04:28:27;16.90;99.90
20732;DHT22;10527;52.124;5.196;2023-07-31T04:30:53;16.90;99.90
20732;DHT22;10527;52.124;5.196;2023-07-31T04:33:20;16.90;99.90
20732;DHT22;10527;52.124;5.196;2023-07-31T04:35:52;16.80;99.90
20732;DHT22;10527;52.124;5.196;2023-07-31T04:38:20;16.80;99.90
20732;DHT22;10527;52.124;5.196;2023-07-31T04:40:48;16.80;99.90
20732;DHT22;10527;52.124;5.196;2023-07-31T04:43:16;16.80;99.90
20732;DHT22;10527;52.124;5.196;2023-07-31T04:45:45;16.70;99.90
20732;DHT22;10527;52.124;5.196;2023-07-31T04:48:15;16.70;99.90
20732;DHT22;10527;52.124;5.196;2023-07-31T04:50:41;16.70;99.90
20732;DHT22;10527;52.124;5.196;2023-07-31T04:53:08;16.70;99.90
20732;DHT22;10527;52.124;5.196;2023-07-31T04:55:35;16.70;99.90
20732;DHT22;10527;52.124;5.196;2023-07-31T04:58:02;16.70;99.90
20732;DHT22;10527;52.124;5.196;2023-07-31T05:00:29;16.70;99.90
20732;DHT22;10527;52.124;5.196;2023-07-31T05:02:56;16.60;99.90
20732;DHT22;10527;52.124;5.196;2023-07-31T05:05:23;16.70;99.90
20732;DHT22;10527;52.124;5.196;2023-07-31T05:07:50;16.70;99.90
20732;DHT22;10527;52.124;5.196;2023-07-31T05:10:17;16.70;99.90
20732;DHT22;10527;52.124;5.196;2023-07-31T05:12:44;16.70;99.90
20732;DHT22;10527;52.124;5.196;2023-07-31T05:15:11;16.60;99.90
20732;DHT22;10527;52.124;5.196;2023-07-31T05:17:37;16.60;99.90
20732;DHT22;10527;52.124;5.196;2023-07-31T05:20:05;16.60;99.90
20732;DHT22;10527;52.124;5.196;2023-07-31T05:22:32;16.60;99.90
20732;DHT22;10527;52.124;5.196;2023-07-31T05:24:59;16.60;99.90
20732;DHT22;10527;52.124;5.196;2023-07-31T05:27:26;16.50;99.90
20732;DHT22;10527;52.124;5.196;2023-07-31T05:29:53;16.50;99.90
20732;DHT22;10527;52.124;5.196;2023-07-31T05:32:20;16.50;99.90
20732;DHT22;10527;52.124;5.196;2023-07-31T05:34:47;16.60;99.90
20732;DHT22;10527;52.124;5.196;2023-07-31T05:37:14;16.50;99.90
20732;DHT22;10527;52.124;5.196;2023-07-31T05:39:41;16.60;99.90
20732;DHT22;10527;52.124;5.196;2023-07-31T05:42:08;16.60;99.90
20732;DHT22;10527;52.124;5.196;2023-07-31T05:44:35;16.50;99.90
20732;DHT22;10527;52.124;5.196;2023-07-31T05:47:02;16.50;99.90
20732;DHT22;10527;52.124;5.196;2023-07-31T05:49:28;16.60;99.90
20732;DHT22;10527;52.124;5.196;2023-07-31T05:51:55;16.60;99.90
20732;DHT22;10527;52.124;5.196;2023-07-31T05:54:22;16.50;99.90
20732;DHT22;10527;52.124;5.196;2023-07-31T05:56:49;16.50;99.90
20732;DHT22;10527;52.124;5.196;2023-07-31T05:59:16;16.60;99.90
20732;DHT22;10527;52.124;5.196;2023-07-31T06:01:43;16.60;99.90
20732;DHT22;10527;52.124;5.196;2023-07-31T06:04:10;16.60;99.90
20732;DHT22;10527;52.124;5.196;2023-07-31T06:06:40;16.60;99.90
20732;DHT22;10527;52.124;5.196;2023-07-31T06:09:07;16.60;99.90
20732;DHT22;10527;52.124;5.196;2023-07-31T06:11:34;16.60;99.90
20732;DHT22;10527;52.124;5.196;2023-07-31T06:14:01;16.60;99.90
20732;DHT22;10527;52.124;5.196;2023-07-31T06:16:28;16.60;99.90
20732;DHT22;10527;52.124;5.196;2023-07-31T06:18:55;16.70;99.90
20732;DHT22;10527;52.124;5.196;2023-07-31T06:21:22;16.70;99.90
20732;DHT22;10527;52.124;5.196;2023-07-31T06:23:49;16.70;99.90
20732;DHT22;10527;52.124;5.196;2023-07-31T06:26:15;16.70;99.90
20732;DHT22;10527;52.124;5.196;2023-07-31T06:28:43;16.70;99.90
20732;DHT22;10527;52.124;5.196;2023-07-31T06:31:10;16.80;99.90
20732;DHT22;10527;52.124;5.196;2023-07-31T06:33:37;16.70;99.90
20732;DHT22;10527;52.124;5.196;2023-07-31T06:36:04;16.80;99.90
20732;DHT22;10527;52.124;5.196;2023-07-31T06:38:31;16.80;99.90
20732;DHT22;10527;52.124;5.196;2023-07-31T06:40:59;16.90;99.90
20732;DHT22;10527;52.124;5.196;2023-07-31T06:43:26;16.80;99.90
20732;DHT22;10527;52.124;5.196;2023-07-31T06:45:55;16.90;99.90
20732;DHT22;10527;52.124;5.196;2023-07-31T06:48:22;16.90;99.90
20732;DHT22;10527;52.124;5.196;2023-07-31T06:50:49;16.80;99.90
20732;DHT22;10527;52.124;5.196;2023-07-31T06:53:16;16.80;99.90
20732;DHT22;10527;52.124;5.196;2023-07-31T06:55:42;16.90;99.90
20732;DHT22;10527;52.124;5.196;2023-07-31T06:58:09;17.00;99.90
20732;DHT22;10527;52.124;5.196;2023-07-31T07:00:36;17.00;99.90
20732;DHT22;10527;52.124;5.196;2023-07-31T07:03:03;16.90;99.90
20732;DHT22;10527;52.124;5.196;2023-07-31T07:05:30;17.00;99.90
20732;DHT22;10527;52.124;5.196;2023-07-31T07:07:58;17.00;99.90
20732;DHT22;10527;52.124;5.196;2023-07-31T07:10:24;17.10;99.90
20732;DHT22;10527;52.124;5.196;2023-07-31T07:12:51;17.10;99.90
20732;DHT22;10527;52.124;5.196;2023-07-31T07:15:19;17.00;99.90
20732;DHT22;10527;52.124;5.196;2023-07-31T07:17:46;17.00;99.90
20732;DHT22;10527;52.124;5.196;2023-07-31T07:20:13;17.10;99.90
20732;DHT22;10527;52.124;5.196;2023-07-31T07:22:40;17.10;99.90
20732;DHT22;10527;52.124;5.196;2023-07-31T07:25:10;17.10;99.90
20732;DHT22;10527;52.124;5.196;2023-07-31T07:27:37;17.10;99.90
20732;DHT22;10527;52.124;5.196;2023-07-31T07:30:04;17.20;99.90
20732;DHT22;10527;52.124;5.196;2023-07-31T07:32:32;17.20;99.90
20732;DHT22;10527;52.124;5.196;2023-07-31T07:34:59;17.20;99.90
20732;DHT22;10527;52.124;5.196;2023-07-31T07:37:26;17.20;99.90
20732;DHT22;10527;52.124;5.196;2023-07-31T07:39:53;17.20;99.90
20732;DHT22;10527;52.124;5.196;2023-07-31T07:42:22;17.10;99.90
20732;DHT22;10527;52.124;5.196;2023-07-31T07:44:49;17.10;99.90
20732;DHT22;10527;52.124;5.196;2023-07-31T07:47:16;17.10;99.90
20732;DHT22;10527;52.124;5.196;2023-07-31T07:49:43;17.20;99.90
20732;DHT22;10527;52.124;5.196;2023-07-31T07:52:18;17.20;99.90
20732;DHT22;10527;52.124;5.196;2023-07-31T07:54:45;17.20;99.90
20732;DHT22;10527;52.124;5.196;2023-07-31T07:57:12;17.20;99.90
20732;DHT22;10527;52.124;5.196;2023-07-31T07:59:38;17.30;99.90
20732;DHT22;10527;52.124;5.196;2023-07-31T08:02:05;17.40;99.90
20732;DHT22;10527;52.124;5.196;2023-07-31T08:04:32;17.30;99.90
20732;DHT22;10527;52.124;5.196;2023-07-31T08:06:59;17.30;99.90
20732;DHT22;10527;52.124;5.196;2023-07-31T08:09:26;17.30;99.90
20732;DHT22;10527;52.124;5.196;2023-07-31T08:11:53;17.30;99.90
20732;DHT22;10527;52.124;5.196;2023-07-31T08:14:21;17.30;99.90
20732;DHT22;10527;52.124;5.196;2023-07-31T08:16:47;17.30;99.90
20732;DHT22;10527;52.124;5.196;2023-07-31T08:19:14;17.40;99.90
20732;DHT22;10527;52.124;5.196;2023-07-31T08:21:41;17.40;99.90
20732;DHT22;10527;52.124;5.196;2023-07-31T08:24:08;17.40;99.90
20732;DHT22;10527;52.124;5.196;2023-07-31T08:26:35;17.40;99.90
20732;DHT22;10527;52.124;5.196;2023-07-31T08:29:02;17.50;99.90
20732;DHT22;10527;52.124;5.196;2023-07-31T08:31:30;17.60;99.90
20732;DHT22;10527;52.124;5.196;2023-07-31T08:33:57;17.60;99.90
20732;DHT22;10527;52.124;5.196;2023-07-31T08:36:25;17.70;99.90
20732;DHT22;10527;52.124;5.196;2023-07-31T08:39:13;17.80;99.90
20732;DHT22;10527;52.124;5.196;2023-07-31T08:41:40;17.80;99.90
20732;DHT22;10527;52.124;5.196;2023-07-31T08:44:07;17.80;99.90
20732;DHT22;10527;52.124;5.196;2023-07-31T08:46:34;17.90;99.90
20732;DHT22;10527;52.124;5.196;2023-07-31T08:49:09;17.90;99.90
20732;DHT22;10527;52.124;5.196;2023-07-31T08:51:37;17.80;99.90
20732;DHT22;10527;52.124;5.196;2023-07-31T08:54:05;17.80;99.90
20732;DHT22;10527;52.124;5.196;2023-07-31T08:56:32;17.80;99.90
20732;DHT22;10527;52.124;5.196;2023-07-31T08:59:02;17.80;99.90
20732;DHT22;10527;52.124;5.196;2023-07-31T09:01:33;17.80;99.90
20732;DHT22;10527;52.124;5.196;2023-07-31T09:04:08;17.70;99.90
20732;DHT22;10527;52.124;5.196;2023-07-31T09:06:42;17.80;99.90
20732;DHT22;10527;52.124;5.196;2023-07-31T09:09:11;17.90;99.90
20732;DHT22;10527;52.124;5.196;2023-07-31T09:11:39;17.80;99.90
20732;DHT22;10527;52.124;5.196;2023-07-31T09:14:07;17.80;99.90
20732;DHT22;10527;52.124;5.196;2023-07-31T09:16:35;17.80;99.90
20732;DHT22;10527;52.124;5.196;2023-07-31T09:19:36;17.90;99.90
20732;DHT22;10527;52.124;5.196;2023-07-31T09:22:13;18.00;99.90
20732;DHT22;10527;52.124;5.196;2023-07-31T09:24:46;18.10;99.90
20732;DHT22;10527;52.124;5.196;2023-07-31T09:27:12;18.10;99.90
20732;DHT22;10527;52.124;5.196;2023-07-31T09:29:39;18.10;99.90
20732;DHT22;10527;52.124;5.196;2023-07-31T09:32:26;18.20;99.90
20732;DHT22;10527;52.124;5.196;2023-07-31T09:34:53;18.20;99.90
20732;DHT22;10527;52.124;5.196;2023-07-31T09:37:20;18.20;99.90
20732;DHT22;10527;52.124;5.196;2023-07-31T09:39:47;18.20;99.90
20732;DHT22;10527;52.124;5.196;2023-07-31T09:42:24;18.30;99.90
20732;DHT22;10527;52.124;5.196;2023-07-31T09:44:53;18.30;99.90
20732;DHT22;10527;52.124;5.196;2023-07-31T09:47:23;18.40;99.90
20732;DHT22;10527;52.124;5.196;2023-07-31T09:49:59;18.40;99.90
20732;DHT22;10527;52.124;5.196;2023-07-31T09:52:26;18.40;99.90
20732;DHT22;10527;52.124;5.196;2023-07-31T09:54:53;18.30;99.90
20732;DHT22;10527;52.124;5.196;2023-07-31T09:57:22;18.40;99.90
20732;DHT22;10527;52.124;5.196;2023-07-31T10:00:00;18.40;99.90
20732;DHT22;10527;52.124;5.196;2023-07-31T10:02:28;18.60;99.90
20732;DHT22;10527;52.124;5.196;2023-07-31T10:04:57;18.50;99.90
20732;DHT22;10527;52.124;5.196;2023-07-31T10:07:42;18.60;99.90
20732;DHT22;10527;52.124;5.196;2023-07-31T10:10:13;18.50;99.90
20732;DHT22;10527;52.124;5.196;2023-07-31T10:12:42;18.50;99.90
20732;DHT22;10527;52.124;5.196;2023-07-31T10:15:11;18.70;99.90
20732;DHT22;10527;52.124;5.196;2023-07-31T10:17:38;18.60;99.90
20732;DHT22;10527;52.124;5.196;2023-07-31T10:20:06;18.60;99.90
20732;DHT22;10527;52.124;5.196;2023-07-31T10:22:34;18.60;99.90
20732;DHT22;10527;52.124;5.196;2023-07-31T10:25:02;18.60;99.90
20732;DHT22;10527;52.124;5.196;2023-07-31T10:27:30;18.60;99.90
20732;DHT22;10527;52.124;5.196;2023-07-31T10:29:58;18.50;99.90
20732;DHT22;10527;52.124;5.196;2023-07-31T10:32:26;18.60;99.90
20732;DHT22;10527;52.124;5.196;2023-07-31T10:34:55;18.60;99.90
20732;DHT22;10527;52.124;5.196;2023-07-31T10:39:59;18.60;99.90
20732;DHT22;10527;52.124;5.196;2023-07-31T10:42:35;18.60;99.90
20732;DHT22;10527;52.124;5.196;2023-07-31T10:45:38;18.50;99.90
20732;DHT22;10527;52.124;5.196;2023-07-31T10:48:16;18.50;99.90
20732;DHT22;10527;52.124;5.196;2023-07-31T10:50:51;18.40;99.90
20732;DHT22;10527;52.124;5.196;2023-07-31T10:53:33;18.50;99.90
20732;DHT22;10527;52.124;5.196;2023-07-31T10:56:05;18.40;99.90
20732;DHT22;10527;52.124;5.196;2023-07-31T10:58:34;18.50;99.90
20732;DHT22;10527;52.124;5.196;2023-07-31T11:01:10;18.50;99.90
20732;DHT22;10527;52.124;5.196;2023-07-31T11:03:48;18.60;99.90
20732;DHT22;10527;52.124;5.196;2023-07-31T11:06:19;18.60;99.90
20732;DHT22;10527;52.124;5.196;2023-07-31T11:08:50;18.60;99.90
20732;DHT22;10527;52.124;5.196;2023-07-31T11:11:19;18.60;99.90
20732;DHT22;10527;52.124;5.196;2023-07-31T11:13:50;18.60;99.90
20732;DHT22;10527;52.124;5.196;2023-07-31T11:16:26;18.50;99.90
20732;DHT22;10527;52.124;5.196;2023-07-31T11:18:53;18.60;99.90
20732;DHT22;10527;52.124;5.196;2023-07-31T11:21:23;18.60;99.90
20732;DHT22;10527;52.124;5.196;2023-07-31T11:23:53;18.60;99.90
20732;DHT22;10527;52.124;5.196;2023-07-31T11:26:32;18.60;99.90
20732;DHT22;10527;52.124;5.196;2023-07-31T11:29:00;18.70;99.90
20732;DHT22;10527;52.124;5.196;2023-07-31T11:31:26;18.70;99.90
20732;DHT22;10527;52.124;5.196;2023-07-31T11:34:07;18.70;99.90
20732;DHT22;10527;52.124;5.196;2023-07-31T11:39:26;18.60;99.90
20732;DHT22;10527;52.124;5.196;2023-07-31T11:41:59;18.60;99.90
20732;DHT22;10527;52.124;5.196;2023-07-31T11:44:26;18.50;99.90
20732;DHT22;10527;52.124;5.196;2023-07-31T11:47:04;18.60;99.90
20732;DHT22;10527;52.124;5.196;2023-07-31T11:49:31;18.60;99.90
20732;DHT22;10527;52.124;5.196;2023-07-31T11:52:02;18.60;99.90
20732;DHT22;10527;52.124;5.196;2023-07-31T11:54:29;18.60;99.90
20732;DHT22;10527;52.124;5.196;2023-07-31T11:56:56;18.50;99.90
20732;DHT22;10527;52.124;5.196;2023-07-31T11:59:24;18.60;99.90
20732;DHT22;10527;52.124;5.196;2023-07-31T12:01:51;18.60;99.90
20732;DHT22;10527;52.124;5.196;2023-07-31T12:04:24;18.70;99.90
20732;DHT22;10527;52.124;5.196;2023-07-31T12:07:01;18.60;99.90
20732;DHT22;10527;52.124;5.196;2023-07-31T12:09:28;18.70;99.90
20732;DHT22;10527;52.124;5.196;2023-07-31T12:11:58;18.70;99.90
20732;DHT22;10527;52.124;5.196;2023-07-31T12:14:28;18.70;99.90
20732;DHT22;10527;52.124;5.196;2023-07-31T12:17:04;18.70;99.90
20732;DHT22;10527;52.124;5.196;2023-07-31T12:19:31;18.70;99.90
20732;DHT22;10527;52.124;5.196;2023-07-31T12:21:59;18.60;99.90
20732;DHT22;10527;52.124;5.196;2023-07-31T12:24:27;18.70;99.90
20732;DHT22;10527;52.124;5.196;2023-07-31T12:26:54;18.70;99.90
20732;DHT22;10527;52.124;5.196;2023-07-31T12:29:21;18.70;99.90
20732;DHT22;10527;52.124;5.196;2023-07-31T12:31:51;18.70;99.90
20732;DHT22;10527;52.124;5.196;2023-07-31T12:34:20;18.70;99.90
20732;DHT22;10527;52.124;5.196;2023-07-31T12:36:47;18.70;99.90
20732;DHT22;10527;52.124;5.196;2023-07-31T12:39:20;18.70;99.90
20732;DHT22;10527;52.124;5.196;2023-07-31T12:41:47;18.70;99.90
20732;DHT22;10527;52.124;5.196;2023-07-31T12:44:14;18.80;99.90
20732;DHT22;10527;52.124;5.196;2023-07-31T12:46:40;18.80;99.90
20732;DHT22;10527;52.124;5.196;2023-07-31T12:49:08;18.80;99.90
20732;DHT22;10527;52.124;5.196;2023-07-31T12:51:37;18.90;99.90
20732;DHT22;10527;52.124;5.196;2023-07-31T12:54:03;18.90;99.90
20732;DHT22;10527;52.124;5.196;2023-07-31T12:56:31;19.00;99.90
20732;DHT22;10527;52.124;5.196;2023-07-31T12:58:58;19.10;99.90
20732;DHT22;10527;52.124;5.196;2023-07-31T13:01:24;19.20;99.90
20732;DHT22;10527;52.124;5.196;2023-07-31T13:03:54;19.20;99.90
20732;DHT22;10527;52.124;5.196;2023-07-31T13:06:21;19.30;99.90
20732;DHT22;10527;52.124;5.196;2023-07-31T13:08:51;19.20;99.90
20732;DHT22;10527;52.124;5.196;2023-07-31T13:11:21;19.20;99.90
20732;DHT22;10527;52.124;5.196;2023-07-31T13:13:48;19.30;99.90
20732;DHT22;10527;52.124;5.196;2023-07-31T13:16:18;19.30;99.90
20732;DHT22;10527;52.124;5.196;2023-07-31T13:18:45;19.30;99.90
20732;DHT22;10527;52.124;5.196;2023-07-31T13:21:18;19.50;99.90
20732;DHT22;10527;52.124;5.196;2023-07-31T13:23:45;19.50;99.90
20732;DHT22;10527;52.124;5.196;2023-07-31T13:26:12;19.40;99.90
20732;DHT22;10527;52.124;5.196;2023-07-31T13:28:38;19.40;99.90
20732;DHT22;10527;52.124;5.196;2023-07-31T13:31:08;19.30;99.90
20732;DHT22;10527;52.124;5.196;2023-07-31T13:33:41;19.30;99.90
20732;DHT22;10527;52.124;5.196;2023-07-31T13:36:10;19.30;99.90
20732;DHT22;10527;52.124;5.196;2023-07-31T13:38:38;19.40;99.90
20732;DHT22;10527;52.124;5.196;2023-07-31T13:41:05;19.40;99.90
20732;DHT22;10527;52.124;5.196;2023-07-31T13:43:32;19.30;99.90
20732;DHT22;10527;52.124;5.196;2023-07-31T13:46:02;19.40;99.90
20732;DHT22;10527;52.124;5.196;2023-07-31T13:48:36;19.30;99.90
20732;DHT22;10527;52.124;5.196;2023-07-31T13:51:03;19.30;99.90
20732;DHT22;10527;52.124;5.196;2023-07-31T13:53:31;19.30;99.90
20732;DHT22;10527;52.124;5.196;2023-07-31T13:55:58;19.30;99.90
20732;DHT22;10527;52.124;5.196;2023-07-31T13:58:25;19.20;99.90
20732;DHT22;10527;52.124;5.196;2023-07-31T14:00:59;19.20;99.90
20732;DHT22;10527;52.124;5.196;2023-07-31T14:03:26;19.10;99.90
20732;DHT22;10527;52.124;5.196;2023-07-31T14:05:53;19.10;99.90
20732;DHT22;10527;52.124;5.196;2023-07-31T14:08:23;19.10;99.90
20732;DHT22;10527;52.124;5.196;2023-07-31T14:10:50;19.10;99.90
20732;DHT22;10527;52.124;5.196;2023-07-31T14:13:17;19.00;99.90
20732;DHT22;10527;52.124;5.196;2023-07-31T14:15:44;19.00;99.90
20732;DHT22;10527;52.124;5.196;2023-07-31T14:18:11;19.10;99.90
20732;DHT22;10527;52.124;5.196;2023-07-31T14:20:38;19.10;99.90
20732;DHT22;10527;52.124;5.196;2023-07-31T14:23:05;19.10;99.90
20732;DHT22;10527;52.124;5.196;2023-07-31T14:25:32;19.00;99.90
20732;DHT22;10527;52.124;5.196;2023-07-31T14:27:59;19.00;99.90
20732;DHT22;10527;52.124;5.196;2023-07-31T14:30:26;19.10;99.90
20732;DHT22;10527;52.124;5.196;2023-07-31T14:32:53;19.00;99.90
20732;DHT22;10527;52.124;5.196;2023-07-31T14:35:21;19.00;99.90
20732;DHT22;10527;52.124;5.196;2023-07-31T14:37:47;19.10;99.90
20732;DHT22;10527;52.124;5.196;2023-07-31T14:40:14;19.10;99.90
20732;DHT22;10527;52.124;5.196;2023-07-31T14:42:41;19.10;99.90
20732;DHT22;10527;52.124;5.196;2023-07-31T14:45:08;19.00;99.90
20732;DHT22;10527;52.124;5.196;2023-07-31T14:47:37;19.00;99.90
20732;DHT22;10527;52.124;5.196;2023-07-31T14:50:04;18.90;99.90
20732;DHT22;10527;52.124;5.196;2023-07-31T14:52:31;18.80;99.90
20732;DHT22;10527;52.124;5.196;2023-07-31T14:54:58;18.90;99.90
20732;DHT22;10527;52.124;5.196;2023-07-31T14:57:25;18.80;99.90
20732;DHT22;10527;52.124;5.196;2023-07-31T14:59:54;18.80;99.90
20732;DHT22;10527;52.124;5.196;2023-07-31T15:02:21;18.90;99.90
20732;DHT22;10527;52.124;5.196;2023-07-31T15:04:54;18.90;99.90
20732;DHT22;10527;52.124;5.196;2023-07-31T15:07:21;18.80;99.90
20732;DHT22;10527;52.124;5.196;2023-07-31T15:09:48;18.90;99.90
20732;DHT22;10527;52.124;5.196;2023-07-31T15:12:15;18.80;99.90
20732;DHT22;10527;52.124;5.196;2023-07-31T15:14:42;18.80;99.90
20732;DHT22;10527;52.124;5.196;2023-07-31T15:17:09;18.70;99.90
20732;DHT22;10527;52.124;5.196;2023-07-31T15:19:36;18.70;99.90
20732;DHT22;10527;52.124;5.196;2023-07-31T15:22:04;18.70;99.90
20732;DHT22;10527;52.124;5.196;2023-07-31T15:24:33;18.80;99.90
20732;DHT22;10527;52.124;5.196;2023-07-31T15:27:03;18.70;99.90
20732;DHT22;10527;52.124;5.196;2023-07-31T15:29:30;18.70;99.90
20732;DHT22;10527;52.124;5.196;2023-07-31T15:31:58;18.70;99.90
20732;DHT22;10527;52.124;5.196;2023-07-31T15:34:25;18.70;99.90
20732;DHT22;10527;52.124;5.196;2023-07-31T15:36:52;18.70;99.90
20732;DHT22;10527;52.124;5.196;2023-07-31T15:39:19;18.70;99.90
20732;DHT22;10527;52.124;5.196;2023-07-31T15:41:46;18.70;99.90
20732;DHT22;10527;52.124;5.196;2023-07-31T15:44:13;18.70;99.90
20732;DHT22;10527;52.124;5.196;2023-07-31T15:46:40;18.60;99.90
20732;DHT22;10527;52.124;5.196;2023-07-31T15:49:07;18.70;99.90
20732;DHT22;10527;52.124;5.196;2023-07-31T15:51:34;18.70;99.90